METAR Data
IDs: Format: Raw Decoded Include TAF

Data at: 2338 UTC 29 May 2020

METAR for:KSUX (Sioux City/Day Fld, IA, US)
Text:KSUX 292252Z AUTO 34006KT 10SM CLR 23/07 A3016 RMK AO2 SLP212 T02330067
Temperature: 23.3°C ( 74°F)
Dewpoint: 6.7°C ( 44°F) [RH = 34%]
Pressure (altimeter):30.16 inches Hg (1021.4 mb) [Sea level pressure: 1021.2 mb]
Winds:from the NNW (340 degrees) at 7 MPH (6 knots; 3.1 m/s)
Visibility:10 or more sm (16+ km)
Ceiling:at least 12,000 feet AGL
Clouds:sky clear below 12,000 feet AGL
QC Flag:automated observation with no human augmentation